createdAt,value
2017-11-18T00:00:02.940Z,19.76
2017-11-18T00:02:29.144Z,19.73
2017-11-18T00:04:55.401Z,19.72
2017-11-18T00:07:21.605Z,19.73
2017-11-18T00:09:47.827Z,19.73
2017-11-18T00:12:14.076Z,19.71
2017-11-18T00:14:40.531Z,19.71
2017-11-18T00:17:06.747Z,19.69
2017-11-18T00:19:32.963Z,19.67
2017-11-18T00:21:59.150Z,19.70
2017-11-18T00:24:25.431Z,19.70
2017-11-18T00:26:51.632Z,19.71
2017-11-18T00:29:17.841Z,19.71
2017-11-18T00:31:44.166Z,19.70
2017-11-18T00:34:10.375Z,19.70
2017-11-18T00:36:36.593Z,19.69
2017-11-18T00:39:03.048Z,19.69
2017-11-18T00:41:29.269Z,19.67
2017-11-18T00:43:55.477Z,19.68
2017-11-18T00:46:21.825Z,19.67
2017-11-18T00:48:48.035Z,19.65
2017-11-18T00:51:14.232Z,19.66
2017-11-18T00:53:40.594Z,19.67
2017-11-18T00:56:06.779Z,19.68
2017-11-18T00:58:32.963Z,19.65
2017-11-18T01:00:59.299Z,19.64
2017-11-18T01:03:25.511Z,19.64
2017-11-18T01:05:51.711Z,19.66
2017-11-18T01:08:17.963Z,19.66
2017-11-18T01:10:44.157Z,19.64
2017-11-18T01:13:10.359Z,19.64
2017-11-18T01:15:36.631Z,19.64
2017-11-18T01:18:02.826Z,19.64
2017-11-18T01:20:29.021Z,19.63
2017-11-18T01:22:55.300Z,19.61
2017-11-18T01:25:27.897Z,19.62
2017-11-18T01:27:54.077Z,19.61
2017-11-18T01:30:20.364Z,19.58
2017-11-18T01:32:46.556Z,19.59
2017-11-18T01:35:12.756Z,19.59
2017-11-18T01:37:39.103Z,19.58
2017-11-18T01:40:05.320Z,19.54
2017-11-18T01:42:31.536Z,19.55
2017-11-18T01:44:57.807Z,19.58
2017-11-18T01:47:24.256Z,19.55
2017-11-18T01:49:50.460Z,19.55
2017-11-18T01:52:16.964Z,19.54
2017-11-18T01:54:43.157Z,19.56
2017-11-18T01:57:09.358Z,19.55
2017-11-18T01:59:35.857Z,19.56
2017-11-18T02:02:02.073Z,19.52
2017-11-18T02:04:28.286Z,19.50
2017-11-18T02:06:54.645Z,19.51
2017-11-18T02:09:20.867Z,19.49
2017-11-18T02:11:47.082Z,19.49
2017-11-18T02:14:13.576Z,19.49
2017-11-18T02:16:39.778Z,19.48
2017-11-18T02:19:06.001Z,19.48
2017-11-18T02:21:32.340Z,19.48
2017-11-18T02:23:58.719Z,19.49
2017-11-18T02:26:25.166Z,19.50
2017-11-18T02:28:51.456Z,19.47
2017-11-18T02:31:17.675Z,19.46
2017-11-18T02:33:43.891Z,19.44
2017-11-18T02:36:10.181Z,19.44
2017-11-18T02:41:43.100Z,19.46
2017-11-18T02:44:09.329Z,19.43
2017-11-18T02:46:35.549Z,19.43
2017-11-18T02:49:01.915Z,19.44
2017-11-18T02:51:28.124Z,19.42
2017-11-18T02:53:54.337Z,19.39
2017-11-18T02:56:20.689Z,19.39
2017-11-18T02:58:47.163Z,19.39
2017-11-18T03:01:13.426Z,19.38
2017-11-18T03:03:39.937Z,19.36
2017-11-18T03:06:06.152Z,19.36
2017-11-18T03:08:32.359Z,19.36
2017-11-18T03:10:58.616Z,19.37
2017-11-18T03:13:24.851Z,19.35
2017-11-18T03:15:51.069Z,19.33
2017-11-18T03:18:17.402Z,19.30
2017-11-18T03:20:43.595Z,19.28
2017-11-18T03:23:09.792Z,19.29
2017-11-18T03:25:36.242Z,19.33
2017-11-18T03:28:02.457Z,19.31
2017-11-18T03:30:28.641Z,19.29
2017-11-18T03:32:54.895Z,19.26
2017-11-18T03:35:21.087Z,19.27
2017-11-18T03:37:47.297Z,19.23
2017-11-18T03:40:13.548Z,19.21
2017-11-18T03:42:39.755Z,19.19
2017-11-18T03:45:05.958Z,19.19
2017-11-18T03:47:32.224Z,19.21
2017-11-18T03:49:58.429Z,19.22
2017-11-18T03:52:24.752Z,19.18
2017-11-18T03:54:51.027Z,19.20
2017-11-18T03:57:17.243Z,19.18
2017-11-18T03:59:43.436Z,19.17
2017-11-18T04:02:09.788Z,19.14
2017-11-18T04:04:35.982Z,19.16
2017-11-18T04:07:02.176Z,19.19
2017-11-18T04:09:28.424Z,19.17
2017-11-18T04:11:54.624Z,19.16
2017-11-18T04:14:20.835Z,19.13
2017-11-18T04:16:47.099Z,19.11
2017-11-18T04:19:13.325Z,19.12
2017-11-18T04:21:39.623Z,19.13
2017-11-18T04:24:06.106Z,19.12
2017-11-18T04:26:32.411Z,19.13
2017-11-18T04:28:58.634Z,19.13
2017-11-18T04:31:25.138Z,19.15
2017-11-18T04:33:51.352Z,19.13
2017-11-18T04:36:17.564Z,19.11
2017-11-18T04:38:43.917Z,19.11
2017-11-18T04:41:10.353Z,19.12
2017-11-18T04:43:36.552Z,19.11
2017-11-18T04:46:02.891Z,19.13
2017-11-18T04:48:29.096Z,19.15
2017-11-18T04:50:55.335Z,19.12
2017-11-18T04:53:21.599Z,19.07
2017-11-18T04:55:47.804Z,19.10
2017-11-18T04:58:13.987Z,19.10
2017-11-18T05:00:40.330Z,19.08
2017-11-18T05:03:06.533Z,19.07
2017-11-18T05:05:32.748Z,19.06
2017-11-18T05:07:59.094Z,19.05
2017-11-18T05:10:25.549Z,19.06
2017-11-18T05:12:52.067Z,19.04
2017-11-18T05:15:18.323Z,19.05
2017-11-18T05:17:44.530Z,19.05
2017-11-18T05:20:10.726Z,19.07
2017-11-18T05:22:37.183Z,19.05
2017-11-18T05:25:03.437Z,19.04
2017-11-18T05:27:30.028Z,19.03
2017-11-18T05:29:56.507Z,19.03
2017-11-18T05:32:22.697Z,19.03
2017-11-18T05:34:48.892Z,19.03
2017-11-18T05:37:15.417Z,19.04
2017-11-18T05:39:41.620Z,19.06
2017-11-18T05:42:07.836Z,19.05
2017-11-18T05:44:34.073Z,19.04
2017-11-18T05:47:00.508Z,19.01
2017-11-18T05:49:26.704Z,19.01
2017-11-18T05:51:53.040Z,18.97
2017-11-18T05:54:19.244Z,19.00
2017-11-18T05:56:45.453Z,18.97
2017-11-18T05:59:11.990Z,18.96
2017-11-18T06:01:38.192Z,18.95
2017-11-18T06:04:04.414Z,18.94
2017-11-18T06:06:30.629Z,18.94
2017-11-18T06:08:56.834Z,18.93
2017-11-18T06:11:23.180Z,18.93
2017-11-18T06:13:49.391Z,18.95
2017-11-18T06:16:15.618Z,18.93
2017-11-18T06:18:41.872Z,18.95
2017-11-18T06:21:08.297Z,18.93
2017-11-18T06:23:34.532Z,18.91
2017-11-18T06:26:00.860Z,18.90
2017-11-18T06:28:27.076Z,18.94
2017-11-18T06:30:53.295Z,18.93
2017-11-18T06:33:19.618Z,18.95
2017-11-18T06:35:45.807Z,18.93
2017-11-18T06:38:12.004Z,18.90
2017-11-18T06:40:38.349Z,18.89
2017-11-18T06:43:04.539Z,18.92
2017-11-18T06:45:30.967Z,18.91
2017-11-18T06:47:57.320Z,18.88
2017-11-18T06:50:23.520Z,18.89
2017-11-18T06:52:49.734Z,18.88
2017-11-18T06:55:15.973Z,18.92
2017-11-18T06:57:42.185Z,18.90
2017-11-18T07:00:08.380Z,18.91
2017-11-18T07:02:34.627Z,18.90
2017-11-18T07:05:00.846Z,18.91
2017-11-18T07:07:27.041Z,18.93
2017-11-18T07:09:53.384Z,18.93
2017-11-18T07:12:19.616Z,18.94
2017-11-18T07:14:45.846Z,18.93
2017-11-18T07:17:12.085Z,18.94
2017-11-18T07:19:38.301Z,18.93
2017-11-18T07:22:04.524Z,18.96
2017-11-18T07:24:30.839Z,18.97
2017-11-18T07:26:57.039Z,18.95
2017-11-18T07:29:23.232Z,18.91
2017-11-18T07:31:49.924Z,18.92
2017-11-18T07:34:16.131Z,18.95
2017-11-18T07:36:42.326Z,18.94
2017-11-18T07:39:08.652Z,18.95
2017-11-18T07:41:34.843Z,18.95
2017-11-18T07:44:01.053Z,18.93
2017-11-18T07:46:27.366Z,18.96
2017-11-18T07:48:53.571Z,18.94
2017-11-18T07:51:19.801Z,18.94
2017-11-18T07:53:46.140Z,18.94
2017-11-18T07:56:12.447Z,18.94
2017-11-18T07:58:38.919Z,18.95
2017-11-18T08:01:05.185Z,18.98
2017-11-18T08:03:31.386Z,18.98
2017-11-18T08:05:57.817Z,18.97
2017-11-18T08:08:24.114Z,18.96
2017-11-18T08:10:50.424Z,18.94
2017-11-18T08:13:16.619Z,18.93
2017-11-18T08:15:42.912Z,18.94
2017-11-18T08:18:09.129Z,18.95
2017-11-18T08:20:35.343Z,18.97
2017-11-18T08:23:01.623Z,18.98
2017-11-18T08:25:27.836Z,19.00
2017-11-18T08:27:54.018Z,19.01
2017-11-18T08:30:20.280Z,18.97
2017-11-18T08:32:46.731Z,18.97
2017-11-18T08:35:12.937Z,18.99
2017-11-18T08:37:39.189Z,19.01
2017-11-18T08:40:05.468Z,19.01
2017-11-18T08:42:31.688Z,18.99
2017-11-18T08:44:58.022Z,18.99
2017-11-18T08:47:24.228Z,19.01
2017-11-18T08:49:50.432Z,19.04
2017-11-18T08:52:16.776Z,19.03
2017-11-18T08:54:43.045Z,19.05
2017-11-18T08:57:09.265Z,19.04
2017-11-18T08:59:35.519Z,19.04
2017-11-18T09:02:02.015Z,19.02
2017-11-18T09:04:28.459Z,18.98
2017-11-18T09:06:54.795Z,19.02
2017-11-18T09:09:21.008Z,19.12
2017-11-18T09:11:47.220Z,19.11
2017-11-18T09:14:13.559Z,19.12
2017-11-18T09:16:39.752Z,19.14
2017-11-18T09:19:05.954Z,19.10
2017-11-18T09:21:32.322Z,19.05
2017-11-18T09:23:58.514Z,19.02
2017-11-18T09:26:24.718Z,19.01
2017-11-18T09:28:50.975Z,19.02
2017-11-18T09:31:17.192Z,18.99
2017-11-18T09:33:43.525Z,19.00
2017-11-18T09:36:09.908Z,19.01
2017-11-18T09:38:36.344Z,19.02
2017-11-18T09:41:02.540Z,18.96
2017-11-18T09:43:28.832Z,18.94
2017-11-18T09:45:55.026Z,18.93
2017-11-18T09:48:21.229Z,18.93
2017-11-18T09:50:47.727Z,18.94
2017-11-18T09:53:13.937Z,18.89
2017-11-18T09:55:40.130Z,18.89
2017-11-18T09:58:06.462Z,18.87
2017-11-18T10:00:32.732Z,18.89
2017-11-18T10:02:58.939Z,18.91
2017-11-18T10:05:25.280Z,18.86
2017-11-18T10:07:51.492Z,18.84
2017-11-18T10:10:17.721Z,18.84
2017-11-18T10:12:44.000Z,18.84
2017-11-18T10:15:10.203Z,18.84
2017-11-18T10:17:36.403Z,18.82
2017-11-18T10:20:02.899Z,18.80
2017-11-18T10:22:29.084Z,18.76
2017-11-18T10:24:55.292Z,18.76
2017-11-18T10:27:21.546Z,18.78
2017-11-18T10:29:47.748Z,18.79
2017-11-18T10:32:13.951Z,18.78
2017-11-18T10:34:40.633Z,18.77
2017-11-18T10:37:06.907Z,18.76
2017-11-18T10:39:33.108Z,18.76
2017-11-18T10:41:59.544Z,18.79
2017-11-18T10:44:25.770Z,18.78
2017-11-18T10:46:51.978Z,18.81
2017-11-18T10:49:18.230Z,18.81
2017-11-18T10:51:44.439Z,18.82
2017-11-18T10:54:10.622Z,18.84
2017-11-18T10:56:36.961Z,18.87
2017-11-18T10:59:03.409Z,18.85
2017-11-18T11:01:29.702Z,18.89
2017-11-18T11:03:56.206Z,18.92
2017-11-18T11:06:22.396Z,18.91
2017-11-18T11:08:48.838Z,18.94
2017-11-18T11:11:15.204Z,18.92
2017-11-18T11:13:41.666Z,18.92
2017-11-18T11:16:07.940Z,18.91
2017-11-18T11:18:34.296Z,18.93
2017-11-18T11:21:00.516Z,18.93
2017-11-18T11:23:26.729Z,18.94
2017-11-18T11:25:52.989Z,18.95
2017-11-18T11:28:19.188Z,18.94
2017-11-18T11:30:45.377Z,18.90
2017-11-18T11:36:02.138Z,18.94
2017-11-18T11:38:28.505Z,18.95
2017-11-18T11:40:54.999Z,18.95
2017-11-18T11:43:21.353Z,18.95
2017-11-18T11:45:47.571Z,18.96
2017-11-18T11:48:13.775Z,18.96
2017-11-18T11:50:40.104Z,18.95
2017-11-18T11:53:06.295Z,18.94
2017-11-18T11:55:32.525Z,18.94
2017-11-18T11:57:58.781Z,18.96
2017-11-18T12:00:25.215Z,18.95
2017-11-18T12:02:51.459Z,18.95
2017-11-18T12:05:17.819Z,18.95
2017-11-18T12:07:44.032Z,18.92
2017-11-18T12:10:10.311Z,18.96
2017-11-18T12:12:36.644Z,18.96
2017-11-18T12:15:02.882Z,18.97
2017-11-18T12:17:29.126Z,18.97
2017-11-18T12:19:55.372Z,19.01
2017-11-18T12:22:21.679Z,19.06
2017-11-18T12:24:47.876Z,19.07
2017-11-18T12:27:14.227Z,19.09
2017-11-18T12:29:40.683Z,19.10
2017-11-18T12:32:06.893Z,19.10
2017-11-18T12:34:33.144Z,19.09
2017-11-18T12:36:59.579Z,19.05
2017-11-18T12:39:25.816Z,19.05
2017-11-18T12:41:52.338Z,19.04
2017-11-18T12:44:18.544Z,19.03
2017-11-18T12:46:44.772Z,19.02
2017-11-18T12:49:11.132Z,19.02
2017-11-18T12:51:37.344Z,19.04
2017-11-18T12:54:03.608Z,19.01
2017-11-18T12:56:29.845Z,19.01
2017-11-18T12:58:56.212Z,19.01
2017-11-18T13:01:22.397Z,19.02
2017-11-18T13:03:48.901Z,19.03
2017-11-18T13:06:15.127Z,19.04
2017-11-18T13:14:08.444Z,19.11
2017-11-18T13:16:56.370Z,19.15
2017-11-18T13:19:26.319Z,19.19
2017-11-18T13:21:55.120Z,19.31
2017-11-18T13:24:21.782Z,19.45
2017-11-18T13:26:49.369Z,19.53
2017-11-18T13:29:18.981Z,19.52
2017-11-18T13:31:45.583Z,19.45
2017-11-18T13:34:16.641Z,19.41
2017-11-18T13:36:43.248Z,19.37
2017-11-18T13:39:10.048Z,19.37
2017-11-18T13:41:38.842Z,19.39
2017-11-18T13:44:07.693Z,19.43
2017-11-18T13:46:34.232Z,19.51
2017-11-18T13:49:00.955Z,19.53
2017-11-18T13:51:27.527Z,19.52
2017-11-18T13:53:54.108Z,19.49
2017-11-18T13:56:20.842Z,19.47
2017-11-18T13:58:48.418Z,19.46
2017-11-18T14:01:15.066Z,19.44
2017-11-18T14:03:41.724Z,19.43
2017-11-18T14:06:08.316Z,19.41
2017-11-18T14:08:34.728Z,19.41
2017-11-18T14:11:01.653Z,19.37
2017-11-18T14:13:28.239Z,19.35
2017-11-18T14:15:54.863Z,19.34
2017-11-18T14:18:21.626Z,19.33
2017-11-18T14:20:48.421Z,19.32
2017-11-18T14:23:14.650Z,19.29
2017-11-18T14:25:40.982Z,19.29
2017-11-18T14:28:07.290Z,19.28
2017-11-18T14:30:33.498Z,19.31
2017-11-18T14:32:59.912Z,19.32
2017-11-18T14:35:26.140Z,19.35
2017-11-18T14:37:52.431Z,19.39
2017-11-18T14:40:18.741Z,19.41
2017-11-18T14:42:44.939Z,19.39
2017-11-18T14:45:11.156Z,19.38
2017-11-18T14:47:37.440Z,19.34
2017-11-18T14:50:03.645Z,19.34
2017-11-18T14:52:30.091Z,19.33
2017-11-18T14:54:56.493Z,19.34
2017-11-18T14:57:22.752Z,19.31
2017-11-18T14:59:49.017Z,19.32
2017-11-18T15:02:15.609Z,19.30
2017-11-18T15:04:41.861Z,19.28
2017-11-18T15:07:08.125Z,19.27
2017-11-18T15:09:34.676Z,19.23
2017-11-18T15:12:00.973Z,19.23
2017-11-18T15:14:38.287Z,19.22
2017-11-18T15:17:10.601Z,19.20
2017-11-18T15:19:42.951Z,19.19
2017-11-18T15:22:15.184Z,19.18
2017-11-18T15:24:47.529Z,19.17
2017-11-18T15:27:19.827Z,19.15
2017-11-18T15:29:54.167Z,19.12
2017-11-18T15:35:30.467Z,19.09
2017-11-18T15:38:02.660Z,19.08
2017-11-18T15:40:29.047Z,19.08
2017-11-18T15:42:55.507Z,19.09
2017-11-18T15:45:21.924Z,19.13
2017-11-18T15:47:54.189Z,19.14
2017-11-18T15:53:36.356Z,19.18
2017-11-18T15:59:20.483Z,19.22
2017-11-18T16:01:46.887Z,19.22
2017-11-18T16:04:19.083Z,19.20
2017-11-18T16:06:54.322Z,19.21
2017-11-18T16:09:20.568Z,19.21
2017-11-18T16:11:46.806Z,19.17
2017-11-18T16:14:13.135Z,19.16
2017-11-18T16:16:39.375Z,19.14
2017-11-18T16:19:05.650Z,19.14
2017-11-18T16:21:31.916Z,19.13
2017-11-18T16:23:58.113Z,19.13
2017-11-18T16:26:24.319Z,19.10
2017-11-18T16:28:50.813Z,19.12
2017-11-18T16:31:17.349Z,19.09
2017-11-18T16:33:43.533Z,19.07
2017-11-18T16:36:09.804Z,19.04
2017-11-18T16:38:36.015Z,19.06
2017-11-18T16:41:02.230Z,19.06
2017-11-18T16:43:28.508Z,19.06
2017-11-18T16:45:54.938Z,19.07
2017-11-18T16:48:21.394Z,19.07
2017-11-18T16:50:47.724Z,19.08
2017-11-18T16:53:13.938Z,19.08
2017-11-18T16:55:40.145Z,19.06
2017-11-18T16:58:06.513Z,19.04
2017-11-18T17:00:32.824Z,19.06
2017-11-18T17:02:59.278Z,19.05
2017-11-18T17:05:25.614Z,19.05
2017-11-18T17:07:51.842Z,19.06
2017-11-18T17:10:18.107Z,19.05
2017-11-18T17:12:44.351Z,19.05
2017-11-18T17:15:10.556Z,19.01
2017-11-18T17:17:36.969Z,19.00
2017-11-18T17:20:03.189Z,19.02
2017-11-18T17:22:29.404Z,19.02
2017-11-18T17:24:55.913Z,19.01
2017-11-18T17:27:22.119Z,19.04
2017-11-18T17:29:48.354Z,19.02
2017-11-18T17:32:14.782Z,19.03
2017-11-18T17:34:41.098Z,19.01
2017-11-18T17:37:07.451Z,19.02
2017-11-18T17:39:33.789Z,19.00
2017-11-18T17:42:06.379Z,19.01
2017-11-18T17:44:32.591Z,19.03
2017-11-18T17:46:58.814Z,19.02
2017-11-18T17:49:25.333Z,19.01
2017-11-18T17:51:51.546Z,18.97
2017-11-18T17:54:17.749Z,18.98
2017-11-18T17:56:44.071Z,18.99
2017-11-18T17:59:10.282Z,19.00
2017-11-18T18:01:36.499Z,18.99
2017-11-18T18:04:02.783Z,18.99
2017-11-18T18:06:28.989Z,18.99
2017-11-18T18:08:55.210Z,18.99
2017-11-18T18:11:21.546Z,18.99
2017-11-18T18:13:47.778Z,19.00
2017-11-18T18:16:14.002Z,18.97
2017-11-18T18:18:40.234Z,18.99
2017-11-18T18:21:06.438Z,18.99
2017-11-18T18:23:32.648Z,19.00
2017-11-18T18:25:59.070Z,19.01
2017-11-18T18:28:25.288Z,19.00
2017-11-18T18:30:51.477Z,18.99
2017-11-18T18:33:17.808Z,18.99
2017-11-18T18:35:44.012Z,19.01
2017-11-18T18:38:10.209Z,19.00
2017-11-18T18:40:36.570Z,19.00
2017-11-18T18:43:05.310Z,18.98
2017-11-18T18:45:31.788Z,18.97
2017-11-18T18:47:58.039Z,18.98
2017-11-18T18:50:24.462Z,19.00
2017-11-18T18:52:50.651Z,19.01
2017-11-18T18:55:16.994Z,19.02
2017-11-18T18:57:43.181Z,19.03
2017-11-18T19:00:09.604Z,19.01
2017-11-18T19:02:41.982Z,19.00
2017-11-18T19:05:08.421Z,19.02
2017-11-18T19:07:34.626Z,18.99
2017-11-18T19:10:00.917Z,19.00
2017-11-18T19:12:27.127Z,19.01
2017-11-18T19:14:53.323Z,19.00
2017-11-18T19:17:19.621Z,18.99
2017-11-18T19:19:45.832Z,18.96
2017-11-18T19:22:12.032Z,18.97
2017-11-18T19:24:38.370Z,18.95
2017-11-18T19:27:04.576Z,18.95
2017-11-18T19:29:30.786Z,18.94
2017-11-18T19:31:57.047Z,18.93
2017-11-18T19:34:23.481Z,18.91
2017-11-18T19:36:49.909Z,18.91
2017-11-18T19:39:16.148Z,18.91
2017-11-18T19:41:42.334Z,18.91
2017-11-18T19:44:08.565Z,18.87
2017-11-18T19:46:34.833Z,18.85
2017-11-18T19:49:01.379Z,18.85
2017-11-18T19:51:27.817Z,18.82
2017-11-18T19:53:54.074Z,18.84
2017-11-18T19:56:20.264Z,18.83
2017-11-18T19:58:46.445Z,18.82
2017-11-18T20:01:12.705Z,18.79
2017-11-18T20:03:39.132Z,18.81
2017-11-18T20:06:05.306Z,18.83
2017-11-18T20:08:31.569Z,18.80
2017-11-18T20:10:57.762Z,18.83
2017-11-18T20:13:23.951Z,18.82
2017-11-18T20:15:50.312Z,18.82
2017-11-18T20:18:16.525Z,18.79
2017-11-18T20:20:42.789Z,18.81
2017-11-18T20:23:09.269Z,18.78
2017-11-18T20:25:35.448Z,18.78
2017-11-18T20:28:01.642Z,18.79
2017-11-18T20:30:27.844Z,18.79
2017-11-18T20:32:54.055Z,18.78
2017-11-18T20:35:20.422Z,18.73
2017-11-18T20:37:46.968Z,18.74
2017-11-18T20:40:13.165Z,18.76
2017-11-18T20:42:39.417Z,18.78
2017-11-18T20:45:05.634Z,18.78
2017-11-18T20:47:31.828Z,18.80
2017-11-18T20:49:58.412Z,18.77
2017-11-18T20:52:24.615Z,18.77
2017-11-18T20:54:50.810Z,18.78
2017-11-18T20:57:17.424Z,18.77
2017-11-18T20:59:43.613Z,18.80
2017-11-18T21:02:09.820Z,18.79
2017-11-18T21:04:36.080Z,18.80
2017-11-18T21:07:02.299Z,18.84
2017-11-18T21:09:28.491Z,18.81
2017-11-18T21:11:54.824Z,18.81
2017-11-18T21:14:21.031Z,18.78
2017-11-18T21:16:47.455Z,18.76
2017-11-18T21:19:13.725Z,18.74
2017-11-18T21:21:39.919Z,18.72
2017-11-18T21:24:06.347Z,18.73
2017-11-18T21:26:32.838Z,18.73
2017-11-18T21:28:59.085Z,18.75
2017-11-18T21:31:25.295Z,18.75
2017-11-18T21:33:51.855Z,18.78
2017-11-18T21:36:18.049Z,18.73
2017-11-18T21:38:44.264Z,18.74
2017-11-18T21:41:10.591Z,18.75
2017-11-18T21:43:36.790Z,18.77
2017-11-18T21:46:03.260Z,18.75
2017-11-18T21:48:29.535Z,18.75
2017-11-18T21:50:55.726Z,18.76
2017-11-18T21:53:21.926Z,18.74
2017-11-18T21:55:48.276Z,18.73
2017-11-18T21:58:14.466Z,18.71
2017-11-18T22:00:40.912Z,18.72
2017-11-18T22:03:07.174Z,18.74
2017-11-18T22:05:33.357Z,18.73
2017-11-18T22:07:59.544Z,18.71
2017-11-18T22:10:26.045Z,18.72
2017-11-18T22:12:52.247Z,18.73
2017-11-18T22:15:18.413Z,18.70
2017-11-18T22:17:44.667Z,18.70
2017-11-18T22:20:10.848Z,18.70
2017-11-18T22:22:37.099Z,18.71
2017-11-18T22:25:03.419Z,18.70
2017-11-18T22:27:29.871Z,18.70
2017-11-18T22:29:56.290Z,18.71
2017-11-18T22:32:22.570Z,18.70
2017-11-18T22:34:48.995Z,18.69
2017-11-18T22:37:15.291Z,18.70
2017-11-18T22:39:41.626Z,18.70
2017-11-18T22:42:07.822Z,18.70
2017-11-18T22:44:34.010Z,18.69
2017-11-18T22:47:00.371Z,18.67
2017-11-18T22:49:26.573Z,18.71
2017-11-18T22:51:52.787Z,18.68
2017-11-18T22:54:19.031Z,18.68
2017-11-18T22:56:45.228Z,18.69
2017-11-18T22:59:11.403Z,18.67
2017-11-18T23:01:37.744Z,18.66
2017-11-18T23:04:04.014Z,18.66
2017-11-18T23:06:30.203Z,18.67
2017-11-18T23:08:56.527Z,18.67
2017-11-18T23:11:22.721Z,18.68
2017-11-18T23:13:48.910Z,18.67
2017-11-18T23:16:15.201Z,18.68
2017-11-18T23:18:41.626Z,18.67
2017-11-18T23:21:07.807Z,18.68
2017-11-18T23:23:34.467Z,18.66
2017-11-18T23:26:00.647Z,18.67
2017-11-18T23:28:26.861Z,18.68
2017-11-18T23:30:53.122Z,18.64
2017-11-18T23:33:19.306Z,18.65
2017-11-18T23:35:45.494Z,18.64
2017-11-18T23:38:11.745Z,18.64
2017-11-18T23:40:37.937Z,18.65
2017-11-18T23:43:04.131Z,18.67
2017-11-18T23:45:30.689Z,18.67
2017-11-18T23:47:56.910Z,18.66
2017-11-18T23:50:23.136Z,18.64
2017-11-18T23:52:49.387Z,18.63
2017-11-18T23:55:15.588Z,18.63
2017-11-18T23:57:41.918Z,18.64
